createdAt,value
2017-06-15T00:00:48.007Z,92.69
2017-06-15T00:02:00.244Z,93.17
2017-06-15T00:03:12.466Z,92.69
2017-06-15T00:04:24.998Z,92.88
2017-06-15T00:05:37.244Z,92.6
2017-06-15T00:06:49.789Z,92.79
2017-06-15T00:08:02.007Z,92.41
2017-06-15T00:09:14.224Z,93.46
2017-06-15T00:10:26.774Z,92.41
2017-06-15T00:11:39.314Z,93.36
2017-06-15T00:12:51.857Z,93.12
2017-06-15T00:14:04.056Z,92.93
2017-06-15T00:15:16.285Z,93.22
2017-06-15T00:16:28.853Z,93.31
2017-06-15T00:17:41.394Z,93.51
2017-06-15T00:18:53.639Z,93.88
2017-06-15T00:20:06.166Z,93.6
2017-06-15T00:21:18.704Z,93.7
2017-06-15T00:22:31.229Z,93.98
2017-06-15T00:23:43.778Z,93.7
2017-06-15T00:24:56.296Z,93.88
2017-06-15T00:26:08.813Z,93.6
2017-06-15T00:27:21.041Z,93.51
2017-06-15T00:28:33.259Z,93.6
2017-06-15T00:29:45.787Z,93.6
2017-06-15T00:30:58.332Z,94.07
2017-06-15T00:32:11.160Z,94.27
2017-06-15T00:33:23.728Z,94.17
2017-06-15T00:34:36.270Z,94.17
2017-06-15T00:35:48.806Z,94.27
2017-06-15T00:37:01.333Z,94.17
2017-06-15T00:38:13.879Z,94.27
2017-06-15T00:39:26.103Z,94.27
2017-06-15T00:40:38.642Z,94.56
2017-06-15T00:41:51.170Z,94.17
2017-06-15T00:43:03.988Z,94.74
2017-06-15T00:44:16.526Z,94.74
2017-06-15T00:45:28.755Z,94.65
2017-06-15T00:46:41.301Z,94.74
2017-06-15T00:47:53.806Z,94.17
2017-06-15T00:49:06.360Z,94.65
2017-06-15T00:50:18.864Z,94.65
2017-06-15T00:51:31.406Z,94.74
2017-06-15T00:52:43.626Z,95.03
2017-06-15T00:53:55.876Z,95.03
2017-06-15T00:55:08.397Z,94.46
2017-06-15T00:56:20.638Z,95.03
2017-06-15T00:57:33.185Z,94.93
2017-06-15T00:58:45.713Z,94.46
2017-06-15T00:59:57.648Z,95.22
2017-06-15T01:01:10.156Z,94.84
2017-06-15T01:02:22.693Z,95.22
2017-06-15T01:03:35.219Z,95.32
2017-06-15T01:04:47.441Z,95.03
2017-06-15T01:05:59.969Z,94.93
2017-06-15T01:07:12.206Z,95.03
2017-06-15T01:08:24.706Z,95.51
2017-06-15T01:09:37.231Z,94.89
2017-06-15T01:10:49.455Z,94.93
2017-06-15T01:12:02.044Z,95.12
2017-06-15T01:13:14.617Z,94.93
2017-06-15T01:14:27.135Z,94.93
2017-06-15T01:15:39.371Z,95.12
2017-06-15T01:16:51.895Z,95.22
2017-06-15T01:18:04.440Z,95.08
2017-06-15T01:19:16.669Z,95.08
2017-06-15T01:20:29.215Z,95.17
2017-06-15T01:21:41.735Z,95.84
2017-06-15T01:22:54.253Z,95.75
2017-06-15T01:24:06.766Z,94.7
2017-06-15T01:25:19.295Z,95.75
2017-06-15T01:26:32.133Z,95.75
2017-06-15T01:27:44.633Z,94.79
2017-06-15T01:28:56.839Z,95.84
2017-06-15T01:30:09.357Z,95.56
2017-06-15T01:31:21.579Z,95.84
2017-06-15T01:32:33.817Z,95.46
2017-06-15T01:33:46.366Z,95.65
2017-06-15T01:34:58.590Z,95.56
2017-06-15T01:36:11.161Z,95.56
2017-06-15T01:37:23.671Z,95.56
2017-06-15T01:38:36.175Z,95.94
2017-06-15T01:39:48.674Z,95.56
2017-06-15T01:41:01.192Z,95.56
2017-06-15T01:42:13.712Z,95.65
2017-06-15T01:43:26.254Z,96.03
2017-06-15T01:44:38.796Z,95.84
2017-06-15T01:45:51.021Z,95.94
2017-06-15T01:47:03.551Z,96.03
2017-06-15T01:48:15.477Z,95.84
2017-06-15T01:49:27.698Z,95.84
2017-06-15T01:50:39.962Z,95.75
2017-06-15T01:51:52.509Z,95.94
2017-06-15T01:53:05.055Z,96.61
2017-06-15T01:54:17.593Z,96.22
2017-06-15T01:55:29.817Z,96.51
2017-06-15T01:56:42.317Z,95.84
2017-06-15T01:57:54.555Z,95.84
2017-06-15T01:59:07.084Z,96.61
2017-06-15T02:00:19.633Z,96.51
2017-06-15T02:01:32.150Z,96.51
2017-06-15T02:02:44.672Z,96.51
2017-06-15T02:03:56.893Z,95.94
2017-06-15T02:05:09.102Z,96.03
2017-06-15T02:06:21.602Z,96.7
2017-06-15T02:07:34.152Z,97.08
2017-06-15T02:08:46.668Z,96.61
2017-06-15T02:09:59.198Z,96.89
2017-06-15T02:11:11.418Z,96.98
2017-06-15T02:12:23.635Z,96.98
2017-06-15T02:13:36.156Z,97.37
2017-06-15T02:14:48.682Z,97.37
2017-06-15T02:16:01.191Z,97.17
2017-06-15T02:17:13.721Z,97.27
2017-06-15T02:18:25.961Z,96.98
2017-06-15T02:19:38.490Z,96.98
2017-06-15T02:20:51.000Z,97.17
2017-06-15T02:22:03.508Z,97.27
2017-06-15T02:23:16.049Z,97.37
2017-06-15T02:24:28.590Z,97.66
2017-06-15T02:25:40.842Z,97.17
2017-06-15T02:26:53.363Z,97.27
2017-06-15T02:28:05.307Z,97.56
2017-06-15T02:29:17.849Z,97.37
2017-06-15T02:30:30.395Z,97.66
2017-06-15T02:31:42.905Z,97.37
2017-06-15T02:32:55.432Z,97.75
2017-06-15T02:34:07.645Z,97.66
2017-06-15T02:35:19.588Z,97.66
2017-06-15T02:36:32.122Z,97.7
2017-06-15T02:37:44.052Z,97.56
2017-06-15T02:38:56.595Z,97.85
2017-06-15T02:40:09.144Z,97.85
2017-06-15T02:41:21.690Z,97.85
2017-06-15T02:42:34.229Z,97.8
2017-06-15T02:43:46.772Z,97.94
2017-06-15T02:44:59.303Z,97.8
2017-06-15T02:46:11.875Z,97.46
2017-06-15T02:47:24.437Z,97.37
2017-06-15T02:48:36.988Z,97.8
2017-06-15T02:49:49.517Z,97.8
2017-06-15T02:51:02.062Z,97.8
2017-06-15T02:52:14.275Z,97.8
2017-06-15T02:53:26.817Z,97.7
2017-06-15T02:54:39.362Z,98.13
2017-06-15T02:55:51.909Z,97.99
2017-06-15T02:57:04.136Z,97.7
2017-06-15T02:58:16.662Z,97.7
2017-06-15T02:59:28.893Z,97.56
2017-06-15T03:00:41.425Z,97.7
2017-06-15T03:01:53.964Z,97.7
2017-06-15T03:03:06.481Z,97.51
2017-06-15T03:04:19.312Z,98.08
2017-06-15T03:05:31.833Z,98.18
2017-06-15T03:06:44.379Z,97.8
2017-06-15T03:07:56.925Z,97.61
2017-06-15T03:09:09.463Z,98.08
2017-06-15T03:10:22.013Z,98.18
2017-06-15T03:11:34.203Z,97.51
2017-06-15T03:12:46.427Z,97.8
2017-06-15T03:13:58.970Z,97.51
2017-06-15T03:15:11.473Z,97.89
2017-06-15T03:16:23.998Z,98.08
2017-06-15T03:17:36.524Z,97.89
2017-06-15T03:18:49.064Z,98.08
2017-06-15T03:20:01.649Z,97.99
2017-06-15T03:21:14.152Z,97.8
2017-06-15T03:22:26.091Z,98.18
2017-06-15T03:23:38.622Z,97.7
2017-06-15T03:24:51.161Z,98.46
2017-06-15T03:26:03.706Z,98.27
2017-06-15T03:27:15.932Z,98.46
2017-06-15T03:28:27.849Z,98.18
2017-06-15T03:29:40.377Z,98.32
2017-06-15T03:30:52.613Z,98.22
2017-06-15T03:32:05.139Z,98.18
2017-06-15T03:33:17.339Z,98.08
2017-06-15T03:34:29.600Z,98.32
2017-06-15T03:35:41.529Z,98.65
2017-06-15T03:36:54.074Z,98.8
2017-06-15T03:38:06.304Z,98.18
2017-06-15T03:39:18.862Z,98.42
2017-06-15T03:40:31.393Z,98.03
2017-06-15T03:41:43.608Z,98.9
2017-06-15T03:42:56.111Z,98.61
2017-06-15T03:44:08.627Z,98.42
2017-06-15T03:45:21.148Z,98.7
2017-06-15T03:46:33.695Z,98.61
2017-06-15T03:47:46.237Z,98.42
2017-06-15T03:48:58.739Z,98.42
2017-06-15T03:50:11.272Z,99.08
2017-06-15T03:51:23.800Z,98.7
2017-06-15T03:52:36.321Z,98.61
2017-06-15T03:53:48.820Z,98.61
2017-06-15T03:55:01.338Z,98.51
2017-06-15T03:56:13.842Z,98.51
2017-06-15T03:57:26.376Z,98.61
2017-06-15T03:58:38.901Z,98.42
2017-06-15T03:59:51.118Z,98.61
2017-06-15T04:01:03.667Z,98.9
2017-06-15T04:02:16.184Z,99.08
2017-06-15T04:03:28.413Z,98.32
2017-06-15T04:04:40.930Z,98.61
2017-06-15T04:05:53.457Z,98.94
2017-06-15T04:07:05.674Z,98.75
2017-06-15T04:08:17.910Z,98.37
2017-06-15T04:09:30.131Z,98.08
2017-06-15T04:10:42.677Z,98.27
2017-06-15T04:11:55.223Z,98.37
2017-06-15T04:13:07.451Z,97.89
2017-06-15T04:14:19.672Z,98.27
2017-06-15T04:15:32.221Z,97.99
2017-06-15T04:16:44.761Z,98.03
2017-06-15T04:17:57.253Z,98.23
2017-06-15T04:19:09.810Z,97.37
2017-06-15T04:20:22.045Z,97.47
2017-06-15T04:21:34.578Z,97.66
2017-06-15T04:22:47.112Z,97.47
2017-06-15T04:23:59.640Z,97.85
2017-06-15T04:25:12.157Z,97.47
2017-06-15T04:26:24.985Z,97.71
2017-06-15T04:27:37.529Z,97.23
2017-06-15T04:28:50.053Z,97.13
2017-06-15T04:30:02.564Z,96.75
2017-06-15T04:31:14.785Z,97.08
2017-06-15T04:32:27.311Z,96.51
2017-06-15T04:33:39.849Z,96.42
2017-06-15T04:34:52.374Z,96.22
2017-06-15T04:36:04.916Z,96.51
2017-06-15T04:37:17.425Z,95.75
2017-06-15T04:38:29.970Z,95.75
2017-06-15T04:39:42.183Z,95.79
2017-06-15T04:40:54.710Z,95.32
2017-06-15T04:42:07.261Z,95.12
2017-06-15T04:43:19.767Z,94.93
2017-06-15T04:44:31.695Z,95.32
2017-06-15T04:45:43.920Z,95.12
2017-06-15T04:46:56.465Z,94.84
2017-06-15T04:48:08.982Z,95.32
2017-06-15T04:49:21.222Z,94.93
2017-06-15T04:50:33.775Z,94.65
2017-06-15T04:51:46.317Z,94.26
2017-06-15T04:52:59.184Z,94.55
2017-06-15T04:54:11.672Z,94.46
2017-06-15T04:55:24.204Z,94.07
2017-06-15T04:56:36.746Z,93.98
2017-06-15T04:57:49.255Z,93.69
2017-06-15T04:59:01.797Z,93.6
2017-06-15T05:00:14.334Z,93.98
2017-06-15T05:01:26.568Z,93.5
2017-06-15T05:02:39.109Z,93.5
2017-06-15T05:03:51.955Z,93.6
2017-06-15T05:05:04.451Z,93.98
2017-06-15T05:06:16.998Z,93.98
2017-06-15T05:07:29.524Z,93.69
2017-06-15T05:08:42.059Z,93.79
2017-06-15T05:09:54.302Z,93.6
2017-06-15T05:11:06.538Z,93.02
2017-06-15T05:12:19.072Z,93.35
2017-06-15T05:13:31.343Z,92.97
2017-06-15T05:14:43.889Z,92.97
2017-06-15T05:15:56.439Z,92.21
2017-06-15T05:17:08.960Z,92.59
2017-06-15T05:18:21.484Z,92.49
2017-06-15T05:19:34.029Z,92.21
2017-06-15T05:20:46.577Z,92.11
2017-06-15T05:21:59.145Z,91.68
2017-06-15T05:23:11.364Z,91.68
2017-06-15T05:24:23.885Z,91.44
2017-06-15T05:25:36.398Z,91.34
2017-06-15T05:26:48.945Z,90.48
2017-06-15T05:28:01.477Z,90.09
2017-06-15T05:29:14.000Z,90.23
2017-06-15T05:30:26.521Z,89.9
2017-06-15T05:31:39.089Z,88.41
2017-06-15T05:32:51.662Z,87.35
2017-06-15T05:34:04.203Z,87.01
2017-06-15T05:35:16.424Z,86.44
2017-06-15T05:36:28.666Z,85.81
2017-06-15T05:37:41.213Z,84.85
2017-06-15T05:38:53.711Z,83.89
2017-06-15T05:40:05.639Z,83.45
2017-06-15T05:41:18.158Z,83.45
2017-06-15T05:42:30.419Z,82.97
2017-06-15T05:43:42.640Z,82.68
2017-06-15T05:44:55.194Z,83.16
2017-06-15T05:46:07.459Z,82.1
2017-06-15T05:47:19.711Z,82.4
2017-06-15T05:48:32.253Z,82.1
2017-06-15T05:49:44.474Z,82.49
2017-06-15T05:50:56.999Z,82.01
2017-06-15T05:52:09.538Z,81.92
2017-06-15T05:53:22.080Z,82.59
2017-06-15T05:54:34.605Z,81.92
2017-06-15T05:55:47.121Z,81.92
2017-06-15T05:56:59.366Z,82.16
2017-06-15T05:58:10.991Z,81.97
2017-06-15T05:59:23.235Z,82.93
2017-06-15T06:00:35.739Z,82.16
2017-06-15T06:01:48.288Z,81.87
2017-06-15T06:03:00.800Z,82.16
2017-06-15T06:04:13.347Z,81.59
2017-06-15T06:05:25.901Z,81.68
2017-06-15T06:06:38.426Z,82.26
2017-06-15T06:07:50.959Z,82.26
2017-06-15T06:09:03.487Z,82.26
2017-06-15T06:10:15.709Z,82.45
2017-06-15T06:11:28.258Z,82.26
2017-06-15T06:12:40.801Z,81.53
2017-06-15T06:13:53.346Z,81.34
2017-06-15T06:15:05.892Z,81.43
2017-06-15T06:16:18.130Z,81.34
2017-06-15T06:17:30.702Z,81.15
2017-06-15T06:18:43.255Z,81.05
2017-06-15T06:19:56.119Z,81.15
2017-06-15T06:21:08.089Z,80.42
2017-06-15T06:22:20.335Z,79.65
2017-06-15T06:23:32.845Z,79.5
2017-06-15T06:24:45.351Z,79.02
2017-06-15T06:25:57.578Z,78.48
2017-06-15T06:27:10.128Z,77.75
2017-06-15T06:28:22.643Z,77.01
2017-06-15T06:29:34.870Z,76.86
2017-06-15T06:30:47.114Z,75.74
2017-06-15T06:31:59.657Z,75.49
2017-06-15T06:33:11.903Z,75.01
2017-06-15T06:34:24.148Z,74.18
2017-06-15T06:35:36.398Z,73.41
2017-06-15T06:36:48.969Z,73.35
2017-06-15T06:38:01.207Z,73.35
2017-06-15T06:39:13.785Z,73.19
2017-06-15T06:40:26.328Z,72.03
2017-06-15T06:41:38.550Z,70.62
2017-06-15T06:42:51.098Z,68.24
2017-06-15T06:44:03.633Z,66.33
2017-06-15T06:45:16.190Z,63.08
2017-06-15T06:46:28.432Z,60.98
2017-06-15T06:47:40.949Z,60.62
2017-06-15T06:48:53.480Z,59.1
2017-06-15T06:50:06.023Z,57.94
2017-06-15T06:51:17.962Z,57.97
2017-06-15T06:52:30.515Z,57.12
2017-06-15T06:53:42.729Z,55.69
2017-06-15T06:54:55.278Z,54.94
2017-06-15T06:56:07.225Z,53
2017-06-15T06:57:19.788Z,52.74
2017-06-15T06:58:32.362Z,51.4
2017-06-15T06:59:44.592Z,49.78
2017-06-15T07:00:56.860Z,49.78
2017-06-15T07:02:09.097Z,49.51
2017-06-15T07:03:21.005Z,48.56
2017-06-15T07:04:33.564Z,48.19
2017-06-15T07:05:46.102Z,48.49
2017-06-15T07:06:58.055Z,48.71
2017-06-15T07:08:10.277Z,47.53
2017-06-15T07:09:22.835Z,47.07
2017-06-15T07:10:35.401Z,46.2
2017-06-15T07:11:47.340Z,45.81
2017-06-15T07:12:59.896Z,45.15
2017-06-15T07:14:12.434Z,44.78
2017-06-15T07:15:24.981Z,45.36
2017-06-15T07:16:37.535Z,46.75
2017-06-15T07:17:50.077Z,45.39
2017-06-15T07:19:02.618Z,44.34
2017-06-15T07:20:14.886Z,43.46
2017-06-15T07:21:27.414Z,42.19
2017-06-15T07:22:39.939Z,42.48
2017-06-15T07:23:52.178Z,41.99
2017-06-15T07:25:04.729Z,42.01
2017-06-15T07:26:16.969Z,42.4
2017-06-15T07:27:29.540Z,42.21
2017-06-15T07:28:42.094Z,41.35
2017-06-15T07:29:54.340Z,40.76
2017-06-15T07:31:06.911Z,40.27
2017-06-15T07:32:19.152Z,40.19
2017-06-15T07:33:31.702Z,40
2017-06-15T07:34:43.944Z,40
2017-06-15T07:35:56.493Z,40.58
2017-06-15T07:37:09.053Z,40.19
2017-06-15T07:38:21.324Z,40.09
2017-06-15T07:39:33.870Z,40
2017-06-15T07:40:46.117Z,40.09
2017-06-15T07:41:58.644Z,39.72
2017-06-15T07:43:10.869Z,38.75
2017-06-15T07:44:23.112Z,39.72
2017-06-15T07:45:35.385Z,41.09
2017-06-15T07:46:47.931Z,41.68
2017-06-15T07:48:00.477Z,41.19
2017-06-15T07:49:12.752Z,41.68
2017-06-15T07:50:25.033Z,41.19
2017-06-15T07:51:37.262Z,39.92
2017-06-15T07:52:49.825Z,39.23
2017-06-15T07:54:02.370Z,39.62
2017-06-15T07:55:14.652Z,41.09
2017-06-15T07:56:26.917Z,41.09
2017-06-15T07:57:39.762Z,41.88
2017-06-15T07:58:51.712Z,41.09
2017-06-15T08:00:03.959Z,40.01
2017-06-15T08:01:16.225Z,39.64
2017-06-15T08:02:28.501Z,39.25
2017-06-15T08:03:41.039Z,38.57
2017-06-15T08:04:53.548Z,38.37
2017-06-15T08:06:06.116Z,37.79
2017-06-15T08:07:18.385Z,38.39
2017-06-15T08:08:30.958Z,39.27
2017-06-15T08:09:43.525Z,38.2
2017-06-15T08:10:56.068Z,37.51
2017-06-15T08:12:08.317Z,37.43
2017-06-15T08:13:20.891Z,37.52
2017-06-15T08:14:33.427Z,37.63
2017-06-15T08:15:45.998Z,38.04
2017-06-15T08:16:58.543Z,36.86
2017-06-15T08:18:10.789Z,37.45
2017-06-15T08:19:23.046Z,37.45
2017-06-15T08:20:35.310Z,37.86
2017-06-15T08:21:47.577Z,36.19
2017-06-15T08:22:59.802Z,36.19
2017-06-15T08:24:12.054Z,36.49
2017-06-15T08:25:24.019Z,36.98
2017-06-15T08:26:36.614Z,37.19
2017-06-15T08:27:49.161Z,36.98
2017-06-15T08:29:01.710Z,37.29
2017-06-15T08:30:13.961Z,37.07
2017-06-15T08:31:26.534Z,36.39
2017-06-15T08:32:39.093Z,36.29
2017-06-15T08:33:51.648Z,36.49
2017-06-15T08:35:04.240Z,36.19
2017-06-15T08:36:16.207Z,37.37
2017-06-15T08:37:28.763Z,37.45
2017-06-15T08:38:41.301Z,37.27
2017-06-15T08:39:53.270Z,36.98
2017-06-15T08:41:05.816Z,36.98
2017-06-15T08:42:18.385Z,36.21
2017-06-15T08:43:30.636Z,35.52
2017-06-15T08:44:42.914Z,35.24
2017-06-15T08:45:55.470Z,35.14
2017-06-15T08:47:07.727Z,34.16
2017-06-15T08:48:20.298Z,34.46
2017-06-15T08:49:32.582Z,34.85
2017-06-15T08:50:44.833Z,35.34
2017-06-15T08:51:57.461Z,35.42
2017-06-15T08:53:09.999Z,36.4
2017-06-15T08:54:22.554Z,37.19
2017-06-15T08:55:35.123Z,38.07
2017-06-15T08:56:47.716Z,38.58
2017-06-15T08:58:00.290Z,36.91
2017-06-15T08:59:12.875Z,36.32
2017-06-15T09:00:25.422Z,36.32
2017-06-15T09:01:38.003Z,36.22
2017-06-15T09:02:50.543Z,35.93
2017-06-15T09:04:02.500Z,34.95
2017-06-15T09:05:14.762Z,34.75
2017-06-15T09:06:27.013Z,35.64
2017-06-15T09:07:39.300Z,35.95
2017-06-15T09:08:51.880Z,35.05
2017-06-15T09:10:04.446Z,34.67
2017-06-15T09:11:16.696Z,34.85
2017-06-15T09:12:29.263Z,34.93
2017-06-15T09:13:41.837Z,34.85
2017-06-15T09:14:54.101Z,34.75
2017-06-15T09:16:06.678Z,35.54
2017-06-15T09:17:18.947Z,34.26
2017-06-15T09:18:31.488Z,34.16
2017-06-15T09:19:44.031Z,34.66
2017-06-15T09:20:56.587Z,34.16
2017-06-15T09:22:09.150Z,34.26
2017-06-15T09:23:21.727Z,34.16
2017-06-15T09:24:34.290Z,34.26
2017-06-15T09:25:46.846Z,34.16
2017-06-15T09:26:59.115Z,34.06
2017-06-15T09:28:11.388Z,34.26
2017-06-15T09:29:23.648Z,33.89
2017-06-15T09:30:36.173Z,33.79
2017-06-15T09:31:48.417Z,33.79
2017-06-15T09:33:00.986Z,33.79
2017-06-15T09:34:13.519Z,33.91
2017-06-15T09:35:25.763Z,33.79
2017-06-15T09:36:37.998Z,33.8
2017-06-15T09:37:50.544Z,34.2
2017-06-15T09:39:03.123Z,34.58
2017-06-15T09:40:15.387Z,34.1
2017-06-15T09:41:27.944Z,33.31
2017-06-15T09:42:40.232Z,33.31
2017-06-15T09:43:52.511Z,34.2
2017-06-15T09:45:05.095Z,33.8
2017-06-15T09:46:17.620Z,32.74
2017-06-15T09:47:30.175Z,32.82
2017-06-15T09:48:42.433Z,33.23
2017-06-15T09:49:54.706Z,32.46
2017-06-15T09:51:06.962Z,32.95
2017-06-15T09:52:19.220Z,32.86
2017-06-15T09:53:31.752Z,32.95
2017-06-15T09:54:44.012Z,33.15
2017-06-15T09:55:56.595Z,32.86
2017-06-15T09:57:09.154Z,33.17
2017-06-15T09:58:21.401Z,32.77
2017-06-15T09:59:33.933Z,32.77
2017-06-15T10:00:46.495Z,32.29
2017-06-15T10:01:59.049Z,31.21
2017-06-15T10:03:11.611Z,31.01
2017-06-15T10:04:23.262Z,31.31
2017-06-15T10:05:35.833Z,31.13
2017-06-15T10:06:48.131Z,30.93
2017-06-15T10:08:00.092Z,30.73
2017-06-15T10:09:12.017Z,30.54
2017-06-15T10:10:24.591Z,30.45
2017-06-15T10:11:37.163Z,30.06
2017-06-15T10:12:49.412Z,30.66
2017-06-15T10:14:01.672Z,29.89
2017-06-15T10:15:14.220Z,29
2017-06-15T10:16:26.497Z,28.51
2017-06-15T10:17:39.067Z,28.52
2017-06-15T10:18:51.635Z,29.21
2017-06-15T10:20:04.201Z,29.11
2017-06-15T10:21:16.446Z,29.72
2017-06-15T10:22:28.701Z,29.43
2017-06-15T10:23:41.268Z,29.52
2017-06-15T10:24:53.538Z,28.93
2017-06-15T10:26:05.488Z,29.62
2017-06-15T10:27:17.781Z,30.11
2017-06-15T10:28:30.349Z,29.43
2017-06-15T10:29:42.897Z,29.43
2017-06-15T10:30:55.490Z,29.54
2017-06-15T10:32:08.023Z,29.43
2017-06-15T10:33:20.293Z,28.65
2017-06-15T10:34:32.866Z,27.47
2017-06-15T10:35:45.431Z,27.86
2017-06-15T10:36:57.972Z,29.52
2017-06-15T10:38:10.526Z,30.3
2017-06-15T10:39:23.094Z,30.1
2017-06-15T10:40:35.362Z,30.2
2017-06-15T10:41:47.939Z,29.32
2017-06-15T10:43:00.539Z,29.03
2017-06-15T10:44:12.802Z,28.24
2017-06-15T10:45:25.373Z,28.16
2017-06-15T10:46:37.911Z,28.06
2017-06-15T10:47:50.442Z,27.67
2017-06-15T10:49:03.040Z,27.58
2017-06-15T10:50:15.311Z,27.48
2017-06-15T10:51:27.871Z,27.39
2017-06-15T10:52:40.424Z,27.21
2017-06-15T10:53:52.091Z,27.21
2017-06-15T10:55:04.657Z,26.71
2017-06-15T10:56:16.932Z,27.81
2017-06-15T10:57:29.507Z,28.51
2017-06-15T10:58:41.753Z,28.21
2017-06-15T10:59:54.299Z,27.62
2017-06-15T11:01:06.873Z,27.62
2017-06-15T11:02:19.469Z,26.62
2017-06-15T11:03:31.704Z,27.33
2017-06-15T11:04:44.257Z,26.64
2017-06-15T11:05:56.804Z,26.84
2017-06-15T11:07:09.378Z,26.55
2017-06-15T11:08:21.371Z,26.76
2017-06-15T11:09:33.334Z,27.26
2017-06-15T11:10:45.909Z,28.25
2017-06-15T11:11:58.180Z,27.75
2017-06-15T11:13:10.722Z,27.66
2017-06-15T11:14:23.278Z,26.86
2017-06-15T11:15:35.517Z,26.37
2017-06-15T11:16:47.768Z,26.28
2017-06-15T11:18:00.035Z,26.78
2017-06-15T11:19:12.313Z,27.27
2017-06-15T11:20:24.607Z,26.68
2017-06-15T11:21:36.881Z,26.18
2017-06-15T11:22:49.441Z,26.28
2017-06-15T11:24:01.686Z,26.68
2017-06-15T11:25:13.935Z,26.48
2017-06-15T11:26:26.506Z,25.59
2017-06-15T11:27:39.073Z,25.3
2017-06-15T11:28:51.631Z,25.39
2017-06-15T11:30:03.889Z,26.08
2017-06-15T11:31:16.463Z,26.58
2017-06-15T11:32:29.082Z,26.86
2017-06-15T11:33:41.715Z,26.86
2017-06-15T11:34:54.301Z,26.67
2017-06-15T11:36:06.920Z,27.16
2017-06-15T11:37:18.869Z,26.96
2017-06-15T11:38:31.439Z,26.85
2017-06-15T11:39:44.018Z,27.74
2017-06-15T11:40:56.588Z,27.64
2017-06-15T11:42:08.831Z,27.64
2017-06-15T11:43:21.107Z,27.74
2017-06-15T11:44:33.664Z,26.37
2017-06-15T11:45:45.936Z,25.77
2017-06-15T11:46:58.485Z,26.07
2017-06-15T11:48:11.057Z,26.56
2017-06-15T11:49:23.628Z,26.37
2017-06-15T11:50:36.175Z,26.17
2017-06-15T11:51:48.453Z,26.46
2017-06-15T11:53:01.039Z,26.37
2017-06-15T11:54:13.618Z,26.86
2017-06-15T11:55:25.882Z,26.48
2017-06-15T11:56:38.427Z,26.76
2017-06-15T11:57:50.678Z,26.48
2017-06-15T11:59:02.952Z,25.68
2017-06-15T12:00:15.562Z,25.99
2017-06-15T12:01:28.136Z,25.71
2017-06-15T12:02:40.711Z,25.21
2017-06-15T12:03:53.290Z,25.21
2017-06-15T12:05:05.832Z,25.51
2017-06-15T12:06:18.370Z,26.01
2017-06-15T12:07:30.938Z,25.42
2017-06-15T12:08:43.196Z,25.81
2017-06-15T12:09:55.462Z,25.51
2017-06-15T12:11:07.708Z,25.42
2017-06-15T12:12:19.974Z,25.01
2017-06-15T12:13:32.221Z,24.52
2017-06-15T12:14:44.799Z,24.8
2017-06-15T12:15:57.345Z,25.4
2017-06-15T12:17:09.588Z,25.4
2017-06-15T12:18:21.841Z,25.9
2017-06-15T12:19:34.383Z,25.51
2017-06-15T12:20:46.644Z,25.51
2017-06-15T12:21:59.189Z,26.01
2017-06-15T12:23:11.763Z,25.31
2017-06-15T12:24:24.038Z,25.02
2017-06-15T12:25:36.580Z,25.13
2017-06-15T12:26:49.158Z,26.42
2017-06-15T12:28:01.418Z,27.4
2017-06-15T12:29:13.967Z,26.31
2017-06-15T12:30:26.544Z,25.9
2017-06-15T12:31:39.094Z,25.89
2017-06-15T12:32:51.652Z,26.48
2017-06-15T12:34:03.905Z,26.67
2017-06-15T12:35:16.469Z,25.87
2017-06-15T12:36:28.715Z,25.87
2017-06-15T12:37:41.285Z,26.27
2017-06-15T12:38:53.835Z,27.04
2017-06-15T12:40:06.406Z,26.93
2017-06-15T12:41:18.677Z,26.74
2017-06-15T12:42:30.957Z,25.95
2017-06-15T12:43:43.491Z,26.14
2017-06-15T12:44:56.037Z,26.25
2017-06-15T12:46:08.595Z,26.25
2017-06-15T12:47:21.156Z,27.14
2017-06-15T12:48:33.731Z,27.14
2017-06-15T12:49:46.299Z,27.14
2017-06-15T12:50:58.869Z,27.43
2017-06-15T12:52:11.445Z,27.43
2017-06-15T12:53:23.715Z,27.14
2017-06-15T12:54:36.262Z,27.25
2017-06-15T12:55:48.827Z,27.55
2017-06-15T12:57:01.385Z,26.65
2017-06-15T12:58:13.623Z,26.55
2017-06-15T12:59:25.905Z,26.54
2017-06-15T13:00:38.166Z,26.73
2017-06-15T13:01:50.733Z,28.01
2017-06-15T13:03:03.301Z,28.01
2017-06-15T13:04:15.856Z,27.4
2017-06-15T13:05:28.427Z,26.7
2017-06-15T13:06:40.970Z,27.28
2017-06-15T13:07:53.537Z,27.48
2017-06-15T13:09:06.112Z,28.17
2017-06-15T13:10:18.650Z,27.76
2017-06-15T13:11:31.225Z,28.06
2017-06-15T13:12:43.476Z,28.55
2017-06-15T13:13:56.013Z,28.06
2017-06-15T13:15:08.292Z,27.84
2017-06-15T13:16:20.855Z,28.25
2017-06-15T13:17:33.108Z,28.35
2017-06-15T13:18:45.397Z,27.56
2017-06-15T13:19:57.978Z,28.53
2017-06-15T13:21:10.239Z,28.64
2017-06-15T13:22:22.784Z,29.13
2017-06-15T13:23:35.042Z,28.74
2017-06-15T13:24:47.563Z,28.64
2017-06-15T13:25:59.822Z,28.53
2017-06-15T13:27:12.351Z,28.93
2017-06-15T13:28:24.597Z,29.03
2017-06-15T13:29:36.860Z,28.53
2017-06-15T13:30:49.418Z,28.24
2017-06-15T13:32:01.991Z,28.24
2017-06-15T13:33:14.575Z,28.64
2017-06-15T13:34:26.854Z,28.45
2017-06-15T13:35:39.124Z,27.75
2017-06-15T13:36:51.643Z,29.13
2017-06-15T13:38:04.211Z,29.21
2017-06-15T13:39:16.154Z,28.11
2017-06-15T13:40:28.710Z,30
2017-06-15T13:41:41.280Z,28.61
2017-06-15T13:42:53.839Z,30.09
2017-06-15T13:44:06.068Z,30.17
2017-06-15T13:45:18.615Z,29.38
2017-06-15T13:46:31.163Z,29.28
2017-06-15T13:47:43.777Z,28.99
2017-06-15T13:48:56.358Z,28.99
2017-06-15T13:50:08.627Z,29.28
2017-06-15T13:51:20.936Z,30.27
2017-06-15T13:52:33.489Z,30.66
2017-06-15T13:53:45.739Z,30.96
2017-06-15T13:54:57.981Z,30.76
2017-06-15T13:56:09.949Z,30.75
2017-06-15T13:57:22.215Z,30.26
2017-06-15T13:58:34.491Z,29.88
2017-06-15T13:59:46.732Z,29.97
2017-06-15T14:00:58.979Z,30.66
2017-06-15T14:02:11.512Z,30.65
2017-06-15T14:03:24.075Z,30.06
2017-06-15T14:04:36.369Z,30.06
2017-06-15T14:05:48.941Z,29.57
2017-06-15T14:07:01.516Z,29.28
2017-06-15T14:08:14.065Z,29.09
2017-06-15T14:09:26.636Z,28.99
2017-06-15T14:10:38.883Z,29.28
2017-06-15T14:11:51.449Z,29.5
2017-06-15T14:13:03.696Z,29.99
2017-06-15T14:14:16.234Z,28.59
2017-06-15T14:15:28.787Z,28.31
2017-06-15T14:16:41.050Z,28.11
2017-06-15T14:17:53.596Z,28.41
2017-06-15T14:19:06.153Z,28.51
2017-06-15T14:20:18.742Z,29
2017-06-15T14:21:31.292Z,28.91
2017-06-15T14:22:43.513Z,28.99
2017-06-15T14:23:56.088Z,28.4
2017-06-15T14:25:08.358Z,28.59
2017-06-15T14:26:20.885Z,29.09
2017-06-15T14:27:33.118Z,29.27
2017-06-15T14:28:45.396Z,29.47
2017-06-15T14:29:57.938Z,29.35
2017-06-15T14:31:09.580Z,29.25
2017-06-15T14:32:22.131Z,28.96
2017-06-15T14:33:34.687Z,29.16
2017-06-15T14:34:47.239Z,29.16
2017-06-15T14:35:59.444Z,29.06
2017-06-15T14:37:12.020Z,28.96
2017-06-15T14:38:24.277Z,29.25
2017-06-15T14:39:36.800Z,29.83
2017-06-15T14:40:49.073Z,30.03
2017-06-15T14:42:01.619Z,30.72
2017-06-15T14:43:14.168Z,31.11
2017-06-15T14:44:26.735Z,30.91
2017-06-15T14:45:38.989Z,30.6
2017-06-15T14:46:51.553Z,30.71
2017-06-15T14:48:04.108Z,30.71
2017-06-15T14:49:16.373Z,31.39
2017-06-15T14:50:28.919Z,30.98
2017-06-15T14:51:41.168Z,31.09
2017-06-15T14:52:53.735Z,31.07
2017-06-15T14:54:06.287Z,30.97
2017-06-15T14:55:18.545Z,31.15
2017-06-15T14:56:31.094Z,31.92
2017-06-15T14:57:43.649Z,31.92
2017-06-15T14:58:55.567Z,33.18
2017-06-15T15:00:07.504Z,33.58
2017-06-15T15:01:20.049Z,32.97
2017-06-15T15:02:32.284Z,32.78
2017-06-15T15:03:44.841Z,32.37
2017-06-15T15:04:57.363Z,32.45
2017-06-15T15:06:09.620Z,33.04
2017-06-15T15:07:22.165Z,33.02
2017-06-15T15:08:34.724Z,33.1
2017-06-15T15:09:46.645Z,33.1
2017-06-15T15:10:58.899Z,33.28
2017-06-15T15:12:11.450Z,33.56
2017-06-15T15:13:23.391Z,33.85
2017-06-15T15:14:35.639Z,33.84
2017-06-15T15:15:48.151Z,35.11
2017-06-15T15:17:00.404Z,36.38
2017-06-15T15:18:12.917Z,36.07
2017-06-15T15:19:25.464Z,36.36
2017-06-15T15:20:37.994Z,36.24
2017-06-15T15:21:50.248Z,36.34
2017-06-15T15:23:02.805Z,36.63
2017-06-15T15:24:15.347Z,36.83
2017-06-15T15:25:27.278Z,37.4
2017-06-15T15:26:39.819Z,38.57
2017-06-15T15:27:52.046Z,38.38
2017-06-15T15:29:04.308Z,37.5
2017-06-15T15:30:16.865Z,37.38
2017-06-15T15:31:29.408Z,37.77
2017-06-15T15:32:41.701Z,37.67
2017-06-15T15:33:53.943Z,36.9
2017-06-15T15:35:06.186Z,37.48
2017-06-15T15:36:18.380Z,38.43